Domselaar, Argentina
Current Conditions -  °F | °C
As of 5:00 PM on Friday 31 Oct 2014 (Local Time) from SAEZ Reporting Station
Scattered Clouds Scattered Clouds  
Wind Chill: 70°   Ceiling: Unl
Heat Index: 70°   Visibility: 6mi
Dew Point: 57°   Wind: 14mph
Humidity: 64%   Direction: 190°S
Pressure: 29.97"   Gusts: NA
Location:  35.07°S, 58.3°W
Report Text: SAEZ 312000Z 19012KT 140V210 9999 SCT045 21/14 Q1015
Loading
Personal Weather Stations






























Interactive Weather Map
Tropical Storm Tracking
New forecast layout! Learn more

10-Day Weather Forecast

Advertisements
Track Severe Weather on mobile